sensor_id;sensor_type;location;lat;lon;timestamp;P1;durP1;ratioP1;P2;durP2;ratioP2
8831;SDS011;4452;50.756;4.472;2023-04-25T00:00:11;20.75;;;4.45;;
8831;SDS011;4452;50.756;4.472;2023-04-25T00:02:37;17.17;;;5.10;;
8831;SDS011;4452;50.756;4.472;2023-04-25T00:05:03;18.55;;;5.30;;
8831;SDS011;4452;50.756;4.472;2023-04-25T00:07:29;20.88;;;6.03;;
8831;SDS011;4452;50.756;4.472;2023-04-25T00:09:56;21.80;;;5.20;;
8831;SDS011;4452;50.756;4.472;2023-04-25T00:12:22;18.33;;;5.90;;
8831;SDS011;4452;50.756;4.472;2023-04-25T00:14:48;21.73;;;4.57;;
8831;SDS011;4452;50.756;4.472;2023-04-25T00:17:15;19.23;;;5.00;;
8831;SDS011;4452;50.756;4.472;2023-04-25T00:19:42;16.70;;;4.88;;
8831;SDS011;4452;50.756;4.472;2023-04-25T00:22:09;15.15;;;5.00;;
8831;SDS011;4452;50.756;4.472;2023-04-25T00:24:35;19.95;;;4.97;;
8831;SDS011;4452;50.756;4.472;2023-04-25T00:27:01;13.10;;;4.50;;
8831;SDS011;4452;50.756;4.472;2023-04-25T00:29:27;18.10;;;4.90;;
8831;SDS011;4452;50.756;4.472;2023-04-25T00:31:52;17.95;;;4.85;;
8831;SDS011;4452;50.756;4.472;2023-04-25T00:34:18;14.43;;;4.90;;
8831;SDS011;4452;50.756;4.472;2023-04-25T00:36:44;22.23;;;5.90;;
8831;SDS011;4452;50.756;4.472;2023-04-25T00:39:09;18.33;;;4.53;;
8831;SDS011;4452;50.756;4.472;2023-04-25T00:41:36;13.95;;;4.40;;
8831;SDS011;4452;50.756;4.472;2023-04-25T00:44:03;18.98;;;4.97;;
8831;SDS011;4452;50.756;4.472;2023-04-25T00:46:29;15.50;;;5.50;;
8831;SDS011;4452;50.756;4.472;2023-04-25T00:48:56;25.58;;;5.22;;
8831;SDS011;4452;50.756;4.472;2023-04-25T00:51:21;15.73;;;5.40;;
8831;SDS011;4452;50.756;4.472;2023-04-25T00:53:48;33.40;;;6.05;;
8831;SDS011;4452;50.756;4.472;2023-04-25T00:56:15;25.52;;;6.03;;
8831;SDS011;4452;50.756;4.472;2023-04-25T00:58:41;28.85;;;5.55;;
8831;SDS011;4452;50.756;4.472;2023-04-25T01:01:08;21.58;;;5.93;;
8831;SDS011;4452;50.756;4.472;2023-04-25T01:03:34;23.42;;;5.63;;
8831;SDS011;4452;50.756;4.472;2023-04-25T01:06:07;16.27;;;5.38;;
8831;SDS011;4452;50.756;4.472;2023-04-25T01:08:37;18.33;;;5.13;;
8831;SDS011;4452;50.756;4.472;2023-04-25T01:11:03;25.45;;;5.78;;
8831;SDS011;4452;50.756;4.472;2023-04-25T01:13:29;23.38;;;5.90;;
8831;SDS011;4452;50.756;4.472;2023-04-25T01:15:57;18.85;;;6.72;;
8831;SDS011;4452;50.756;4.472;2023-04-25T01:18:23;22.75;;;5.47;;
8831;SDS011;4452;50.756;4.472;2023-04-25T01:20:50;22.40;;;5.18;;
8831;SDS011;4452;50.756;4.472;2023-04-25T01:23:17;28.55;;;6.20;;
8831;SDS011;4452;50.756;4.472;2023-04-25T01:25:44;29.88;;;6.40;;
8831;SDS011;4452;50.756;4.472;2023-04-25T01:28:10;31.25;;;6.40;;
8831;SDS011;4452;50.756;4.472;2023-04-25T01:30:36;25.13;;;5.75;;
8831;SDS011;4452;50.756;4.472;2023-04-25T01:33:03;22.20;;;6.13;;
8831;SDS011;4452;50.756;4.472;2023-04-25T01:35:30;28.77;;;6.22;;
8831;SDS011;4452;50.756;4.472;2023-04-25T01:37:57;40.90;;;6.30;;
8831;SDS011;4452;50.756;4.472;2023-04-25T01:40:23;19.77;;;6.00;;
8831;SDS011;4452;50.756;4.472;2023-04-25T01:42:49;34.65;;;6.82;;
8831;SDS011;4452;50.756;4.472;2023-04-25T01:45:15;35.05;;;6.78;;
8831;SDS011;4452;50.756;4.472;2023-04-25T01:47:42;30.00;;;6.78;;
8831;SDS011;4452;50.756;4.472;2023-04-25T01:50:08;42.30;;;7.18;;
8831;SDS011;4452;50.756;4.472;2023-04-25T01:52:35;24.52;;;5.60;;
8831;SDS011;4452;50.756;4.472;2023-04-25T01:55:03;28.98;;;7.72;;
8831;SDS011;4452;50.756;4.472;2023-04-25T01:57:30;31.55;;;7.20;;
8831;SDS011;4452;50.756;4.472;2023-04-25T02:00:00;31.60;;;6.78;;
8831;SDS011;4452;50.756;4.472;2023-04-25T02:02:28;24.15;;;6.55;;
8831;SDS011;4452;50.756;4.472;2023-04-25T02:04:53;35.90;;;7.03;;
8831;SDS011;4452;50.756;4.472;2023-04-25T02:07:20;29.45;;;6.70;;
8831;SDS011;4452;50.756;4.472;2023-04-25T02:09:46;30.30;;;8.68;;
8831;SDS011;4452;50.756;4.472;2023-04-25T02:12:11;29.90;;;6.60;;
8831;SDS011;4452;50.756;4.472;2023-04-25T02:14:37;29.65;;;8.38;;
8831;SDS011;4452;50.756;4.472;2023-04-25T02:17:03;44.63;;;7.47;;
8831;SDS011;4452;50.756;4.472;2023-04-25T02:19:29;30.65;;;6.20;;
8831;SDS011;4452;50.756;4.472;2023-04-25T02:21:54;34.03;;;6.13;;
8831;SDS011;4452;50.756;4.472;2023-04-25T02:24:22;35.10;;;6.63;;
8831;SDS011;4452;50.756;4.472;2023-04-25T02:26:48;36.85;;;6.70;;
8831;SDS011;4452;50.756;4.472;2023-04-25T02:29:14;22.10;;;6.32;;
8831;SDS011;4452;50.756;4.472;2023-04-25T02:31:40;23.00;;;6.43;;
8831;SDS011;4452;50.756;4.472;2023-04-25T02:34:06;21.58;;;6.22;;
8831;SDS011;4452;50.756;4.472;2023-04-25T02:36:33;31.98;;;6.80;;
8831;SDS011;4452;50.756;4.472;2023-04-25T02:39:00;38.15;;;7.45;;
8831;SDS011;4452;50.756;4.472;2023-04-25T02:41:28;25.55;;;5.40;;
8831;SDS011;4452;50.756;4.472;2023-04-25T02:43:54;30.63;;;7.10;;
8831;SDS011;4452;50.756;4.472;2023-04-25T02:46:20;26.95;;;6.60;;
8831;SDS011;4452;50.756;4.472;2023-04-25T02:48:46;36.22;;;7.70;;
8831;SDS011;4452;50.756;4.472;2023-04-25T02:51:11;31.55;;;7.82;;
8831;SDS011;4452;50.756;4.472;2023-04-25T02:53:37;25.65;;;6.75;;
8831;SDS011;4452;50.756;4.472;2023-04-25T02:56:03;37.28;;;6.97;;
8831;SDS011;4452;50.756;4.472;2023-04-25T02:58:29;29.58;;;7.38;;
8831;SDS011;4452;50.756;4.472;2023-04-25T03:00:54;26.45;;;7.03;;
8831;SDS011;4452;50.756;4.472;2023-04-25T03:03:20;22.48;;;7.45;;
8831;SDS011;4452;50.756;4.472;2023-04-25T03:05:49;24.50;;;6.38;;
8831;SDS011;4452;50.756;4.472;2023-04-25T03:08:15;30.73;;;7.47;;
8831;SDS011;4452;50.756;4.472;2023-04-25T03:10:41;35.40;;;6.60;;
8831;SDS011;4452;50.756;4.472;2023-04-25T03:13:07;25.98;;;7.07;;
8831;SDS011;4452;50.756;4.472;2023-04-25T03:15:33;34.42;;;6.82;;
8831;SDS011;4452;50.756;4.472;2023-04-25T03:17:59;27.27;;;7.22;;
8831;SDS011;4452;50.756;4.472;2023-04-25T03:20:25;28.67;;;7.00;;
8831;SDS011;4452;50.756;4.472;2023-04-25T03:22:50;36.00;;;7.60;;
8831;SDS011;4452;50.756;4.472;2023-04-25T03:25:16;28.30;;;7.47;;
8831;SDS011;4452;50.756;4.472;2023-04-25T03:27:42;23.27;;;7.45;;
8831;SDS011;4452;50.756;4.472;2023-04-25T03:30:07;32.35;;;7.85;;
8831;SDS011;4452;50.756;4.472;2023-04-25T03:32:33;33.08;;;7.50;;
8831;SDS011;4452;50.756;4.472;2023-04-25T03:34:59;31.58;;;7.32;;
8831;SDS011;4452;50.756;4.472;2023-04-25T03:37:26;31.30;;;6.78;;
8831;SDS011;4452;50.756;4.472;2023-04-25T03:39:51;29.90;;;7.30;;
8831;SDS011;4452;50.756;4.472;2023-04-25T03:42:17;25.30;;;7.40;;
8831;SDS011;4452;50.756;4.472;2023-04-25T03:44:42;22.60;;;7.40;;
8831;SDS011;4452;50.756;4.472;2023-04-25T03:47:08;30.70;;;6.25;;
8831;SDS011;4452;50.756;4.472;2023-04-25T03:49:34;33.22;;;8.05;;
8831;SDS011;4452;50.756;4.472;2023-04-25T03:52:01;26.55;;;7.75;;
8831;SDS011;4452;50.756;4.472;2023-04-25T03:54:27;31.20;;;7.10;;
8831;SDS011;4452;50.756;4.472;2023-04-25T03:56:53;44.67;;;8.32;;
8831;SDS011;4452;50.756;4.472;2023-04-25T03:59:18;28.38;;;7.32;;
8831;SDS011;4452;50.756;4.472;2023-04-25T04:01:44;78.00;;;10.02;;
8831;SDS011;4452;50.756;4.472;2023-04-25T04:04:10;45.20;;;7.68;;
8831;SDS011;4452;50.756;4.472;2023-04-25T04:06:35;36.30;;;9.15;;
8831;SDS011;4452;50.756;4.472;2023-04-25T04:09:01;29.10;;;8.00;;
8831;SDS011;4452;50.756;4.472;2023-04-25T04:11:28;39.70;;;7.35;;
8831;SDS011;4452;50.756;4.472;2023-04-25T04:13:53;32.40;;;7.45;;
8831;SDS011;4452;50.756;4.472;2023-04-25T04:16:19;38.05;;;7.40;;
8831;SDS011;4452;50.756;4.472;2023-04-25T04:18:45;41.92;;;8.88;;
8831;SDS011;4452;50.756;4.472;2023-04-25T04:21:11;40.50;;;8.77;;
8831;SDS011;4452;50.756;4.472;2023-04-25T04:23:37;45.00;;;8.20;;
8831;SDS011;4452;50.756;4.472;2023-04-25T04:26:03;36.15;;;8.75;;
8831;SDS011;4452;50.756;4.472;2023-04-25T04:28:28;35.60;;;8.73;;
8831;SDS011;4452;50.756;4.472;2023-04-25T04:30:54;35.60;;;7.82;;
8831;SDS011;4452;50.756;4.472;2023-04-25T04:33:20;27.27;;;7.88;;
8831;SDS011;4452;50.756;4.472;2023-04-25T04:35:46;24.40;;;7.97;;
8831;SDS011;4452;50.756;4.472;2023-04-25T04:38:12;35.63;;;8.00;;
8831;SDS011;4452;50.756;4.472;2023-04-25T04:40:40;35.80;;;8.80;;
8831;SDS011;4452;50.756;4.472;2023-04-25T04:43:09;39.53;;;8.70;;
8831;SDS011;4452;50.756;4.472;2023-04-25T04:45:35;31.83;;;7.97;;
8831;SDS011;4452;50.756;4.472;2023-04-25T04:48:01;37.75;;;7.90;;
8831;SDS011;4452;50.756;4.472;2023-04-25T04:50:27;33.03;;;7.70;;
8831;SDS011;4452;50.756;4.472;2023-04-25T04:52:53;24.83;;;7.05;;
8831;SDS011;4452;50.756;4.472;2023-04-25T04:55:20;27.52;;;7.18;;
8831;SDS011;4452;50.756;4.472;2023-04-25T04:57:45;25.58;;;7.18;;
8831;SDS011;4452;50.756;4.472;2023-04-25T05:00:11;27.60;;;8.73;;
8831;SDS011;4452;50.756;4.472;2023-04-25T05:02:38;35.13;;;7.95;;
8831;SDS011;4452;50.756;4.472;2023-04-25T05:05:04;36.10;;;8.18;;
8831;SDS011;4452;50.756;4.472;2023-04-25T05:07:30;28.60;;;7.85;;
8831;SDS011;4452;50.756;4.472;2023-04-25T05:09:56;29.08;;;7.65;;
8831;SDS011;4452;50.756;4.472;2023-04-25T05:12:22;29.02;;;9.70;;
8831;SDS011;4452;50.756;4.472;2023-04-25T05:14:47;23.73;;;7.18;;
8831;SDS011;4452;50.756;4.472;2023-04-25T05:17:13;27.52;;;7.03;;
8831;SDS011;4452;50.756;4.472;2023-04-25T05:19:39;36.97;;;7.40;;
8831;SDS011;4452;50.756;4.472;2023-04-25T05:22:05;25.45;;;7.75;;
8831;SDS011;4452;50.756;4.472;2023-04-25T05:24:30;28.27;;;7.75;;
8831;SDS011;4452;50.756;4.472;2023-04-25T05:26:56;38.92;;;7.50;;
8831;SDS011;4452;50.756;4.472;2023-04-25T05:29:22;23.70;;;7.57;;
8831;SDS011;4452;50.756;4.472;2023-04-25T05:31:48;31.00;;;7.72;;
8831;SDS011;4452;50.756;4.472;2023-04-25T05:34:14;37.25;;;7.90;;
8831;SDS011;4452;50.756;4.472;2023-04-25T05:36:40;18.90;;;6.63;;
8831;SDS011;4452;50.756;4.472;2023-04-25T05:39:06;44.22;;;9.40;;
8831;SDS011;4452;50.756;4.472;2023-04-25T05:41:32;26.70;;;7.80;;
8831;SDS011;4452;50.756;4.472;2023-04-25T05:43:57;26.25;;;8.52;;
8831;SDS011;4452;50.756;4.472;2023-04-25T05:46:23;28.00;;;7.18;;
8831;SDS011;4452;50.756;4.472;2023-04-25T05:48:49;22.83;;;5.82;;
8831;SDS011;4452;50.756;4.472;2023-04-25T05:51:15;17.60;;;6.32;;
8831;SDS011;4452;50.756;4.472;2023-04-25T05:53:42;27.67;;;6.38;;
8831;SDS011;4452;50.756;4.472;2023-04-25T05:56:08;27.92;;;6.68;;
8831;SDS011;4452;50.756;4.472;2023-04-25T05:58:33;25.73;;;6.93;;
8831;SDS011;4452;50.756;4.472;2023-04-25T06:00:59;22.58;;;7.25;;
8831;SDS011;4452;50.756;4.472;2023-04-25T06:03:25;22.98;;;6.82;;
8831;SDS011;4452;50.756;4.472;2023-04-25T06:05:51;23.95;;;6.28;;
8831;SDS011;4452;50.756;4.472;2023-04-25T06:08:16;23.10;;;6.50;;
8831;SDS011;4452;50.756;4.472;2023-04-25T06:10:42;21.25;;;7.07;;
8831;SDS011;4452;50.756;4.472;2023-04-25T06:13:08;19.42;;;6.13;;
8831;SDS011;4452;50.756;4.472;2023-04-25T06:15:33;26.60;;;7.15;;
8831;SDS011;4452;50.756;4.472;2023-04-25T06:18:00;22.45;;;7.35;;
8831;SDS011;4452;50.756;4.472;2023-04-25T06:20:25;16.90;;;5.63;;
8831;SDS011;4452;50.756;4.472;2023-04-25T06:22:51;34.63;;;7.72;;
8831;SDS011;4452;50.756;4.472;2023-04-25T06:25:17;20.48;;;6.03;;
8831;SDS011;4452;50.756;4.472;2023-04-25T06:27:43;21.92;;;6.68;;
8831;SDS011;4452;50.756;4.472;2023-04-25T06:30:09;22.98;;;6.55;;
8831;SDS011;4452;50.756;4.472;2023-04-25T06:32:37;20.30;;;6.50;;
8831;SDS011;4452;50.756;4.472;2023-04-25T06:35:03;20.83;;;6.20;;
8831;SDS011;4452;50.756;4.472;2023-04-25T06:37:29;14.77;;;6.03;;
8831;SDS011;4452;50.756;4.472;2023-04-25T06:39:55;28.65;;;7.13;;
8831;SDS011;4452;50.756;4.472;2023-04-25T06:42:20;25.75;;;6.22;;
8831;SDS011;4452;50.756;4.472;2023-04-25T06:44:46;20.67;;;5.50;;
8831;SDS011;4452;50.756;4.472;2023-04-25T06:47:12;19.80;;;6.10;;
8831;SDS011;4452;50.756;4.472;2023-04-25T06:49:37;19.35;;;6.15;;
8831;SDS011;4452;50.756;4.472;2023-04-25T06:52:03;23.35;;;5.57;;
8831;SDS011;4452;50.756;4.472;2023-04-25T06:54:29;17.90;;;6.03;;
8831;SDS011;4452;50.756;4.472;2023-04-25T06:56:55;26.95;;;6.80;;
8831;SDS011;4452;50.756;4.472;2023-04-25T06:59:21;25.15;;;6.07;;
8831;SDS011;4452;50.756;4.472;2023-04-25T07:01:47;25.73;;;6.35;;
8831;SDS011;4452;50.756;4.472;2023-04-25T07:04:12;17.92;;;5.43;;
8831;SDS011;4452;50.756;4.472;2023-04-25T07:06:38;22.70;;;6.43;;
8831;SDS011;4452;50.756;4.472;2023-04-25T07:09:08;22.02;;;6.90;;
8831;SDS011;4452;50.756;4.472;2023-04-25T07:11:35;20.52;;;6.88;;
8831;SDS011;4452;50.756;4.472;2023-04-25T07:14:01;19.67;;;7.10;;
8831;SDS011;4452;50.756;4.472;2023-04-25T07:16:27;22.95;;;6.22;;
8831;SDS011;4452;50.756;4.472;2023-04-25T07:18:52;22.33;;;6.22;;
8831;SDS011;4452;50.756;4.472;2023-04-25T07:21:18;20.88;;;6.30;;
8831;SDS011;4452;50.756;4.472;2023-04-25T07:23:44;31.40;;;7.13;;
8831;SDS011;4452;50.756;4.472;2023-04-25T07:26:10;26.35;;;6.78;;
8831;SDS011;4452;50.756;4.472;2023-04-25T07:28:35;26.75;;;7.15;;
8831;SDS011;4452;50.756;4.472;2023-04-25T07:31:01;23.60;;;6.82;;
8831;SDS011;4452;50.756;4.472;2023-04-25T07:33:27;22.38;;;7.28;;
8831;SDS011;4452;50.756;4.472;2023-04-25T07:35:53;28.08;;;7.22;;
8831;SDS011;4452;50.756;4.472;2023-04-25T07:38:20;25.33;;;8.07;;
8831;SDS011;4452;50.756;4.472;2023-04-25T07:40:47;23.95;;;6.75;;
8831;SDS011;4452;50.756;4.472;2023-04-25T07:43:17;21.13;;;7.63;;
8831;SDS011;4452;50.756;4.472;2023-04-25T07:45:43;22.50;;;6.40;;
8831;SDS011;4452;50.756;4.472;2023-04-25T07:48:10;23.52;;;6.95;;
8831;SDS011;4452;50.756;4.472;2023-04-25T07:50:36;21.13;;;6.78;;
8831;SDS011;4452;50.756;4.472;2023-04-25T07:53:02;23.05;;;6.32;;
8831;SDS011;4452;50.756;4.472;2023-04-25T07:55:28;16.30;;;6.03;;
8831;SDS011;4452;50.756;4.472;2023-04-25T07:57:55;18.65;;;6.07;;
8831;SDS011;4452;50.756;4.472;2023-04-25T08:00:20;21.70;;;6.43;;
8831;SDS011;4452;50.756;4.472;2023-04-25T08:02:46;19.95;;;5.63;;
8831;SDS011;4452;50.756;4.472;2023-04-25T08:05:12;19.15;;;5.70;;
8831;SDS011;4452;50.756;4.472;2023-04-25T08:07:39;20.35;;;4.93;;
8831;SDS011;4452;50.756;4.472;2023-04-25T08:10:06;22.38;;;4.38;;
8831;SDS011;4452;50.756;4.472;2023-04-25T08:12:33;15.40;;;4.05;;
8831;SDS011;4452;50.756;4.472;2023-04-25T08:14:58;7.97;;;3.65;;
8831;SDS011;4452;50.756;4.472;2023-04-25T08:17:24;14.95;;;3.78;;
8831;SDS011;4452;50.756;4.472;2023-04-25T08:19:50;15.15;;;4.07;;
8831;SDS011;4452;50.756;4.472;2023-04-25T08:22:15;13.35;;;3.65;;
8831;SDS011;4452;50.756;4.472;2023-04-25T08:24:41;8.82;;;3.60;;
8831;SDS011;4452;50.756;4.472;2023-04-25T08:27:07;16.48;;;4.03;;
8831;SDS011;4452;50.756;4.472;2023-04-25T08:29:33;18.90;;;4.43;;
8831;SDS011;4452;50.756;4.472;2023-04-25T08:32:00;10.80;;;4.03;;
8831;SDS011;4452;50.756;4.472;2023-04-25T08:34:25;19.75;;;4.45;;
8831;SDS011;4452;50.756;4.472;2023-04-25T08:36:51;10.63;;;3.97;;
8831;SDS011;4452;50.756;4.472;2023-04-25T08:39:17;10.93;;;3.15;;
8831;SDS011;4452;50.756;4.472;2023-04-25T08:41:43;17.95;;;4.03;;
8831;SDS011;4452;50.756;4.472;2023-04-25T08:44:10;10.95;;;3.55;;
8831;SDS011;4452;50.756;4.472;2023-04-25T08:46:40;9.90;;;3.63;;
8831;SDS011;4452;50.756;4.472;2023-04-25T08:49:06;14.07;;;3.70;;
8831;SDS011;4452;50.756;4.472;2023-04-25T08:51:34;13.32;;;4.30;;
8831;SDS011;4452;50.756;4.472;2023-04-25T08:54:08;14.65;;;5.47;;
8831;SDS011;4452;50.756;4.472;2023-04-25T08:56:36;18.25;;;5.43;;
8831;SDS011;4452;50.756;4.472;2023-04-25T08:59:03;12.52;;;4.45;;
8831;SDS011;4452;50.756;4.472;2023-04-25T09:01:32;9.68;;;4.05;;
8831;SDS011;4452;50.756;4.472;2023-04-25T09:04:04;22.27;;;4.40;;
8831;SDS011;4452;50.756;4.472;2023-04-25T09:06:30;18.13;;;4.72;;
8831;SDS011;4452;50.756;4.472;2023-04-25T09:09:03;17.70;;;4.05;;
8831;SDS011;4452;50.756;4.472;2023-04-25T09:11:31;16.02;;;4.40;;
8831;SDS011;4452;50.756;4.472;2023-04-25T09:14:13;17.88;;;4.32;;
8831;SDS011;4452;50.756;4.472;2023-04-25T09:19:26;10.38;;;3.85;;
8831;SDS011;4452;50.756;4.472;2023-04-25T09:21:57;13.50;;;4.60;;
8831;SDS011;4452;50.756;4.472;2023-04-25T09:26:57;10.30;;;3.92;;
8831;SDS011;4452;50.756;4.472;2023-04-25T09:29:29;12.45;;;4.28;;
8831;SDS011;4452;50.756;4.472;2023-04-25T09:32:32;13.68;;;4.40;;
8831;SDS011;4452;50.756;4.472;2023-04-25T09:34:55;13.50;;;4.00;;
8831;SDS011;4452;50.756;4.472;2023-04-25T09:37:22;10.57;;;3.58;;
8831;SDS011;4452;50.756;4.472;2023-04-25T09:39:58;8.68;;;3.50;;
8831;SDS011;4452;50.756;4.472;2023-04-25T09:42:28;22.50;;;4.55;;
8831;SDS011;4452;50.756;4.472;2023-04-25T09:44:56;11.23;;;3.53;;
8831;SDS011;4452;50.756;4.472;2023-04-25T09:47:24;8.30;;;3.80;;
8831;SDS011;4452;50.756;4.472;2023-04-25T09:49:52;11.45;;;3.42;;
8831;SDS011;4452;50.756;4.472;2023-04-25T09:52:22;12.65;;;3.63;;
8831;SDS011;4452;50.756;4.472;2023-04-25T09:54:49;10.82;;;3.25;;
8831;SDS011;4452;50.756;4.472;2023-04-25T09:57:21;8.05;;;3.47;;
8831;SDS011;4452;50.756;4.472;2023-04-25T09:59:49;10.02;;;3.65;;
8831;SDS011;4452;50.756;4.472;2023-04-25T10:02:17;9.40;;;3.65;;
8831;SDS011;4452;50.756;4.472;2023-04-25T10:04:46;11.13;;;3.28;;
8831;SDS011;4452;50.756;4.472;2023-04-25T10:07:13;9.35;;;3.65;;
8831;SDS011;4452;50.756;4.472;2023-04-25T10:09:40;5.47;;;2.70;;
8831;SDS011;4452;50.756;4.472;2023-04-25T10:12:07;10.18;;;3.22;;
8831;SDS011;4452;50.756;4.472;2023-04-25T10:14:33;4.82;;;2.70;;
8831;SDS011;4452;50.756;4.472;2023-04-25T10:16:59;7.07;;;2.80;;
8831;SDS011;4452;50.756;4.472;2023-04-25T10:19:26;15.13;;;3.58;;
8831;SDS011;4452;50.756;4.472;2023-04-25T10:24:39;6.35;;;3.25;;
8831;SDS011;4452;50.756;4.472;2023-04-25T10:27:06;11.10;;;3.60;;
8831;SDS011;4452;50.756;4.472;2023-04-25T10:29:33;9.95;;;3.40;;
8831;SDS011;4452;50.756;4.472;2023-04-25T10:32:00;12.05;;;4.10;;
8831;SDS011;4452;50.756;4.472;2023-04-25T10:34:39;12.65;;;3.75;;
8831;SDS011;4452;50.756;4.472;2023-04-25T10:37:05;14.40;;;3.55;;
8831;SDS011;4452;50.756;4.472;2023-04-25T10:39:38;18.10;;;3.78;;
8831;SDS011;4452;50.756;4.472;2023-04-25T10:42:07;8.00;;;2.70;;
8831;SDS011;4452;50.756;4.472;2023-04-25T10:44:33;7.72;;;2.38;;
8831;SDS011;4452;50.756;4.472;2023-04-25T10:47:00;5.57;;;2.58;;
8831;SDS011;4452;50.756;4.472;2023-04-25T10:49:37;5.68;;;2.30;;
8831;SDS011;4452;50.756;4.472;2023-04-25T10:52:10;4.68;;;2.20;;
8831;SDS011;4452;50.756;4.472;2023-04-25T10:54:46;9.25;;;3.22;;
8831;SDS011;4452;50.756;4.472;2023-04-25T11:02:30;7.82;;;2.72;;
8831;SDS011;4452;50.756;4.472;2023-04-25T11:04:56;13.57;;;3.97;;
8831;SDS011;4452;50.756;4.472;2023-04-25T11:09:47;9.60;;;2.55;;
8831;SDS011;4452;50.756;4.472;2023-04-25T11:12:14;7.47;;;2.30;;
8831;SDS011;4452;50.756;4.472;2023-04-25T11:14:41;4.07;;;1.83;;
8831;SDS011;4452;50.756;4.472;2023-04-25T11:17:07;6.35;;;2.40;;
8831;SDS011;4452;50.756;4.472;2023-04-25T11:19:33;3.38;;;1.80;;
8831;SDS011;4452;50.756;4.472;2023-04-25T11:21:59;4.15;;;1.95;;
8831;SDS011;4452;50.756;4.472;2023-04-25T11:24:30;7.72;;;2.33;;
8831;SDS011;4452;50.756;4.472;2023-04-25T11:26:57;3.97;;;2.20;;
8831;SDS011;4452;50.756;4.472;2023-04-25T11:29:27;3.05;;;2.00;;
8831;SDS011;4452;50.756;4.472;2023-04-25T11:31:54;5.90;;;2.17;;
8831;SDS011;4452;50.756;4.472;2023-04-25T11:34:23;3.92;;;1.98;;
8831;SDS011;4452;50.756;4.472;2023-04-25T11:36:50;11.00;;;2.40;;
8831;SDS011;4452;50.756;4.472;2023-04-25T11:39:17;9.52;;;2.55;;
8831;SDS011;4452;50.756;4.472;2023-04-25T11:41:44;6.30;;;3.05;;
8831;SDS011;4452;50.756;4.472;2023-04-25T11:44:09;8.00;;;2.72;;
8831;SDS011;4452;50.756;4.472;2023-04-25T11:46:35;8.63;;;3.30;;
8831;SDS011;4452;50.756;4.472;2023-04-25T11:49:01;15.95;;;2.75;;
8831;SDS011;4452;50.756;4.472;2023-04-25T11:51:27;11.15;;;3.95;;
8831;SDS011;4452;50.756;4.472;2023-04-25T11:53:53;6.03;;;2.22;;
8831;SDS011;4452;50.756;4.472;2023-04-25T11:56:20;5.00;;;2.45;;
8831;SDS011;4452;50.756;4.472;2023-04-25T11:58:59;4.40;;;2.20;;
8831;SDS011;4452;50.756;4.472;2023-04-25T12:01:30;10.18;;;2.40;;
8831;SDS011;4452;50.756;4.472;2023-04-25T12:04:12;6.85;;;2.70;;
8831;SDS011;4452;50.756;4.472;2023-04-25T12:06:46;3.58;;;2.20;;
8831;SDS011;4452;50.756;4.472;2023-04-25T12:09:14;5.45;;;2.20;;
8831;SDS011;4452;50.756;4.472;2023-04-25T12:11:43;5.38;;;2.28;;
8831;SDS011;4452;50.756;4.472;2023-04-25T12:14:32;4.03;;;2.08;;
8831;SDS011;4452;50.756;4.472;2023-04-25T12:17:00;4.00;;;2.28;;
8831;SDS011;4452;50.756;4.472;2023-04-25T12:19:31;8.68;;;2.60;;
8831;SDS011;4452;50.756;4.472;2023-04-25T12:21:59;4.53;;;2.35;;
8831;SDS011;4452;50.756;4.472;2023-04-25T12:24:26;4.38;;;2.10;;
8831;SDS011;4452;50.756;4.472;2023-04-25T12:26:59;2.95;;;2.22;;
8831;SDS011;4452;50.756;4.472;2023-04-25T12:29:31;4.95;;;2.20;;
8831;SDS011;4452;50.756;4.472;2023-04-25T12:31:57;1.88;;;1.77;;
8831;SDS011;4452;50.756;4.472;2023-04-25T12:34:24;5.03;;;2.63;;
8831;SDS011;4452;50.756;4.472;2023-04-25T12:36:51;8.00;;;2.17;;
8831;SDS011;4452;50.756;4.472;2023-04-25T12:39:17;3.83;;;2.10;;
8831;SDS011;4452;50.756;4.472;2023-04-25T12:41:44;8.32;;;2.17;;
8831;SDS011;4452;50.756;4.472;2023-04-25T12:44:12;3.60;;;1.95;;
8831;SDS011;4452;50.756;4.472;2023-04-25T12:46:37;5.07;;;2.33;;
8831;SDS011;4452;50.756;4.472;2023-04-25T12:49:04;7.20;;;2.40;;
8831;SDS011;4452;50.756;4.472;2023-04-25T12:51:31;8.48;;;2.30;;
8831;SDS011;4452;50.756;4.472;2023-04-25T12:53:58;4.10;;;1.70;;
8831;SDS011;4452;50.756;4.472;2023-04-25T12:56:25;4.68;;;1.70;;
8831;SDS011;4452;50.756;4.472;2023-04-25T12:58:51;4.72;;;1.70;;
8831;SDS011;4452;50.756;4.472;2023-04-25T13:01:17;1.60;;;1.50;;
8831;SDS011;4452;50.756;4.472;2023-04-25T13:03:43;5.28;;;1.83;;
8831;SDS011;4452;50.756;4.472;2023-04-25T13:06:08;9.32;;;1.88;;
8831;SDS011;4452;50.756;4.472;2023-04-25T13:08:34;9.10;;;1.75;;
8831;SDS011;4452;50.756;4.472;2023-04-25T13:11:01;2.50;;;1.90;;
8831;SDS011;4452;50.756;4.472;2023-04-25T13:13:28;4.78;;;1.95;;
8831;SDS011;4452;50.756;4.472;2023-04-25T13:15:54;4.00;;;1.95;;
8831;SDS011;4452;50.756;4.472;2023-04-25T13:18:20;5.15;;;1.75;;
8831;SDS011;4452;50.756;4.472;2023-04-25T13:20:46;2.80;;;2.00;;
8831;SDS011;4452;50.756;4.472;2023-04-25T13:23:11;3.05;;;1.90;;
8831;SDS011;4452;50.756;4.472;2023-04-25T13:25:37;1.80;;;1.70;;
8831;SDS011;4452;50.756;4.472;2023-04-25T13:28:03;4.30;;;1.98;;
8831;SDS011;4452;50.756;4.472;2023-04-25T13:30:29;3.65;;;2.03;;
8831;SDS011;4452;50.756;4.472;2023-04-25T13:32:55;5.20;;;1.98;;
8831;SDS011;4452;50.756;4.472;2023-04-25T13:35:22;7.25;;;2.25;;
8831;SDS011;4452;50.756;4.472;2023-04-25T13:37:47;6.05;;;1.88;;
8831;SDS011;4452;50.756;4.472;2023-04-25T13:40:13;8.05;;;1.83;;
8831;SDS011;4452;50.756;4.472;2023-04-25T13:42:39;5.50;;;2.22;;
8831;SDS011;4452;50.756;4.472;2023-04-25T13:45:06;3.55;;;2.03;;
8831;SDS011;4452;50.756;4.472;2023-04-25T13:47:32;3.80;;;2.38;;
8831;SDS011;4452;50.756;4.472;2023-04-25T13:49:58;3.70;;;1.98;;
8831;SDS011;4452;50.756;4.472;2023-04-25T13:52:24;4.40;;;2.40;;
8831;SDS011;4452;50.756;4.472;2023-04-25T13:54:50;8.82;;;2.50;;
8831;SDS011;4452;50.756;4.472;2023-04-25T13:57:16;5.45;;;2.33;;
8831;SDS011;4452;50.756;4.472;2023-04-25T13:59:42;6.13;;;2.67;;
8831;SDS011;4452;50.756;4.472;2023-04-25T14:02:08;13.38;;;2.38;;
8831;SDS011;4452;50.756;4.472;2023-04-25T14:04:34;2.88;;;1.90;;
8831;SDS011;4452;50.756;4.472;2023-04-25T14:07:00;5.88;;;2.20;;
8831;SDS011;4452;50.756;4.472;2023-04-25T14:09:27;3.60;;;2.33;;
8831;SDS011;4452;50.756;4.472;2023-04-25T14:11:53;6.88;;;2.40;;
8831;SDS011;4452;50.756;4.472;2023-04-25T14:14:19;5.40;;;1.80;;
8831;SDS011;4452;50.756;4.472;2023-04-25T14:16:46;2.15;;;1.88;;
8831;SDS011;4452;50.756;4.472;2023-04-25T14:19:16;2.33;;;2.13;;
8831;SDS011;4452;50.756;4.472;2023-04-25T14:21:48;5.18;;;2.13;;
8831;SDS011;4452;50.756;4.472;2023-04-25T14:24:14;4.97;;;2.20;;
8831;SDS011;4452;50.756;4.472;2023-04-25T14:26:40;6.47;;;2.13;;
8831;SDS011;4452;50.756;4.472;2023-04-25T14:29:07;3.25;;;1.92;;
8831;SDS011;4452;50.756;4.472;2023-04-25T14:31:36;2.78;;;1.90;;
8831;SDS011;4452;50.756;4.472;2023-04-25T14:34:02;3.45;;;1.88;;
8831;SDS011;4452;50.756;4.472;2023-04-25T14:36:28;3.20;;;2.03;;
8831;SDS011;4452;50.756;4.472;2023-04-25T14:38:54;7.78;;;2.15;;
8831;SDS011;4452;50.756;4.472;2023-04-25T14:41:20;3.97;;;1.98;;
8831;SDS011;4452;50.756;4.472;2023-04-25T14:43:46;5.93;;;1.88;;
8831;SDS011;4452;50.756;4.472;2023-04-25T14:46:12;5.95;;;1.88;;
8831;SDS011;4452;50.756;4.472;2023-04-25T14:48:37;5.75;;;2.38;;
8831;SDS011;4452;50.756;4.472;2023-04-25T14:51:03;3.53;;;2.13;;
8831;SDS011;4452;50.756;4.472;2023-04-25T14:53:30;9.20;;;2.50;;
8831;SDS011;4452;50.756;4.472;2023-04-25T14:55:56;2.03;;;1.77;;
8831;SDS011;4452;50.756;4.472;2023-04-25T14:58:22;5.80;;;2.42;;
8831;SDS011;4452;50.756;4.472;2023-04-25T15:00:48;5.57;;;2.45;;
8831;SDS011;4452;50.756;4.472;2023-04-25T15:03:13;3.65;;;2.05;;
8831;SDS011;4452;50.756;4.472;2023-04-25T15:05:41;4.35;;;2.00;;
8831;SDS011;4452;50.756;4.472;2023-04-25T15:08:07;5.18;;;2.17;;
8831;SDS011;4452;50.756;4.472;2023-04-25T15:10:33;4.82;;;2.50;;
8831;SDS011;4452;50.756;4.472;2023-04-25T15:12:59;6.30;;;2.13;;
8831;SDS011;4452;50.756;4.472;2023-04-25T15:15:25;3.25;;;2.00;;
8831;SDS011;4452;50.756;4.472;2023-04-25T15:17:51;4.40;;;2.03;;